createdAt,value
2018-09-17T00:04:09.615Z,13.00
2018-09-17T00:08:53.568Z,13.00
2018-09-17T00:13:37.702Z,13.10
2018-09-17T00:18:21.643Z,13.10
2018-09-17T00:23:05.636Z,13.20
2018-09-17T00:27:49.585Z,13.40
2018-09-17T00:32:33.425Z,13.90
2018-09-17T00:37:17.226Z,14.20
2018-09-17T00:42:01.011Z,14.40
2018-09-17T00:46:44.818Z,14.40
2018-09-17T00:51:28.787Z,14.50
2018-09-17T00:56:12.608Z,14.50
2018-09-17T01:00:56.727Z,14.40
2018-09-17T01:05:40.474Z,14.50
2018-09-17T01:10:24.339Z,14.50
2018-09-17T01:15:08.368Z,14.40
2018-09-17T01:19:52.317Z,14.40
2018-09-17T01:24:36.095Z,14.30
2018-09-17T01:29:20.026Z,14.20
2018-09-17T01:34:03.915Z,14.10
2018-09-17T01:38:47.813Z,14.00
2018-09-17T01:43:31.641Z,13.90
2018-09-17T01:48:15.449Z,14.00
2018-09-17T01:52:59.108Z,13.90
2018-09-17T01:57:42.913Z,13.70
2018-09-17T02:02:26.731Z,13.60
2018-09-17T02:07:10.537Z,13.70
2018-09-17T02:11:54.511Z,13.80
2018-09-17T02:16:38.211Z,13.80
2018-09-17T02:21:22.116Z,13.80
2018-09-17T02:26:06.038Z,13.80
2018-09-17T02:30:49.865Z,13.70
2018-09-17T02:35:34.420Z,13.50
2018-09-17T02:40:18.786Z,13.50
2018-09-17T02:45:02.477Z,13.70
2018-09-17T02:49:46.247Z,13.50
2018-09-17T02:54:30.032Z,13.50
2018-09-17T02:59:13.896Z,13.40
2018-09-17T03:03:57.694Z,13.40
2018-09-17T03:08:41.517Z,13.30
2018-09-17T03:13:25.340Z,13.30
2018-09-17T03:18:09.184Z,13.20
2018-09-17T03:22:52.906Z,13.20
2018-09-17T03:27:36.721Z,13.20
2018-09-17T03:32:20.590Z,13.10
2018-09-17T03:37:04.489Z,13.10
2018-09-17T03:41:48.435Z,13.20
2018-09-17T03:46:32.346Z,13.20
2018-09-17T03:51:16.538Z,13.20
2018-09-17T03:56:00.457Z,13.10
2018-09-17T04:00:44.449Z,13.10
2018-09-17T04:05:28.310Z,13.00
2018-09-17T04:10:12.163Z,13.10
2018-09-17T04:14:56.028Z,13.10
2018-09-17T04:19:39.827Z,12.90
2018-09-17T04:24:23.534Z,12.90
2018-09-17T04:29:07.509Z,13.00
2018-09-17T04:33:51.326Z,13.00
2018-09-17T04:38:35.137Z,12.90
2018-09-17T04:43:20.853Z,12.90
2018-09-17T04:48:04.760Z,12.90
2018-09-17T04:52:48.633Z,12.90
2018-09-17T04:57:32.785Z,13.00
2018-09-17T05:02:16.657Z,13.00
2018-09-17T05:07:00.388Z,13.10
2018-09-17T05:11:44.216Z,13.20
2018-09-17T05:16:28.052Z,13.20
2018-09-17T05:21:11.735Z,13.20
2018-09-17T05:25:55.490Z,13.30
2018-09-17T05:30:39.430Z,13.40
2018-09-17T05:35:23.302Z,13.40
2018-09-17T05:40:07.091Z,13.40
2018-09-17T05:44:50.924Z,13.40
2018-09-17T05:49:34.795Z,13.50
2018-09-17T05:54:18.562Z,13.50
2018-09-17T05:59:02.326Z,13.60
2018-09-17T06:03:46.185Z,13.70
2018-09-17T06:08:29.907Z,13.90
2018-09-17T06:13:13.800Z,14.20
2018-09-17T06:17:57.759Z,14.50
2018-09-17T06:22:41.643Z,14.70
2018-09-17T06:27:25.781Z,14.90
2018-09-17T06:32:09.722Z,15.10
2018-09-17T06:36:53.564Z,15.30
2018-09-17T06:41:37.480Z,15.60
2018-09-17T06:46:21.374Z,15.90
2018-09-17T06:51:05.142Z,16.10
2018-09-17T06:55:49.202Z,16.30
2018-09-17T07:00:33.010Z,16.60
2018-09-17T07:05:16.742Z,16.90
2018-09-17T07:10:07.957Z,17.10
2018-09-17T07:14:51.808Z,17.40
2018-09-17T07:19:35.651Z,17.80
2018-09-17T07:24:20.236Z,18.10
2018-09-17T07:29:04.134Z,18.40
2018-09-17T07:33:47.964Z,18.80
2018-09-17T07:38:31.804Z,19.30
2018-09-17T07:43:15.585Z,19.70
2018-09-17T07:48:00.048Z,20.10
2018-09-17T07:52:43.878Z,20.50
2018-09-17T07:57:27.719Z,20.90
2018-09-17T08:02:11.622Z,21.40
2018-09-17T08:06:55.576Z,21.90
2018-09-17T08:11:39.843Z,22.50
2018-09-17T08:16:23.613Z,23.00
2018-09-17T08:21:07.413Z,23.20
2018-09-17T08:25:51.214Z,23.50
2018-09-17T08:30:35.063Z,23.70
2018-09-17T08:35:18.807Z,23.80
2018-09-17T08:40:02.511Z,24.40
2018-09-17T08:44:46.380Z,24.70
2018-09-17T08:49:30.292Z,25.10
2018-09-17T08:54:14.292Z,25.70
2018-09-17T08:58:59.682Z,25.80
2018-09-17T09:03:48.783Z,26.00
2018-09-17T09:08:32.550Z,26.10
2018-09-17T09:13:24.389Z,26.10
2018-09-17T09:18:09.026Z,26.40
2018-09-17T09:22:52.827Z,26.10
2018-09-17T09:27:36.656Z,26.40
2018-09-17T09:32:20.611Z,26.70
2018-09-17T09:37:06.815Z,26.50
2018-09-17T09:41:50.903Z,26.60
2018-09-17T09:46:34.771Z,27.00
2018-09-17T09:51:18.509Z,27.00
2018-09-17T09:56:02.207Z,27.00
2018-09-17T10:00:51.502Z,27.00
2018-09-17T10:05:35.134Z,27.40
2018-09-17T10:12:28.475Z,27.20
2018-09-17T10:17:17.500Z,27.90
2018-09-17T10:22:01.391Z,28.40
2018-09-17T10:26:45.171Z,28.10
2018-09-17T10:31:29.161Z,28.50
2018-09-17T10:36:12.951Z,29.00
2018-09-17T10:40:56.794Z,29.50
2018-09-17T10:45:40.510Z,29.40
2018-09-17T10:50:24.267Z,28.80
2018-09-17T10:55:08.218Z,28.90
2018-09-17T10:59:52.608Z,28.90
2018-09-17T11:04:36.753Z,29.20
2018-09-17T11:09:20.656Z,28.70
2018-09-17T11:14:04.541Z,28.90
2018-09-17T11:18:48.844Z,29.00
2018-09-17T11:23:53.670Z,28.90
2018-09-17T11:28:37.678Z,28.50
2018-09-17T11:33:21.824Z,28.20
2018-09-17T11:38:05.765Z,28.50
2018-09-17T11:43:08.859Z,28.70
2018-09-17T11:47:54.695Z,28.50
2018-09-17T11:52:38.728Z,28.10
2018-09-17T11:57:34.506Z,28.20
2018-09-17T12:02:30.301Z,28.80
2018-09-17T12:07:32.231Z,28.90
2018-09-17T12:28:11.679Z,29.60
2018-09-17T12:32:57.291Z,29.90
2018-09-17T12:37:55.929Z,29.70
2018-09-17T12:42:39.771Z,29.50
2018-09-17T12:47:25.063Z,30.20
2018-09-17T12:52:09.372Z,30.40
2018-09-17T12:57:17.098Z,30.00
2018-09-17T13:02:02.644Z,29.80
2018-09-17T13:06:46.758Z,29.90
2018-09-17T13:11:31.109Z,30.00
2018-09-17T13:16:25.588Z,29.40
2018-09-17T13:21:09.410Z,30.00
2018-09-17T13:25:53.332Z,30.30
2018-09-17T13:30:37.256Z,30.50
2018-09-17T13:35:21.019Z,30.50
2018-09-17T13:40:04.886Z,30.50
2018-09-17T13:45:03.618Z,30.60
2018-09-17T13:50:19.783Z,30.70
2018-09-17T14:10:27.061Z,30.70
2018-09-17T14:15:10.904Z,30.60
2018-09-17T14:19:54.822Z,30.60
2018-09-17T14:24:38.534Z,30.20
2018-09-17T14:29:22.368Z,30.00
2018-09-17T14:34:06.412Z,29.80
2018-09-17T14:38:50.230Z,29.20
2018-09-17T14:43:34.136Z,29.20
2018-09-17T14:48:17.903Z,29.10
2018-09-17T14:53:01.700Z,29.00
2018-09-17T14:57:45.623Z,29.00
2018-09-17T15:02:29.354Z,28.90
2018-09-17T15:07:13.359Z,28.60
2018-09-17T15:11:57.361Z,28.70
2018-09-17T15:16:41.751Z,28.50
2018-09-17T15:21:25.512Z,28.40
2018-09-17T15:26:10.398Z,28.30
2018-09-17T15:30:54.302Z,28.40
2018-09-17T15:35:38.163Z,28.20
2018-09-17T15:40:26.797Z,28.10
2018-09-17T15:45:12.472Z,27.90
2018-09-17T15:49:56.600Z,27.90
2018-09-17T15:54:40.409Z,27.70
2018-09-17T15:59:24.259Z,27.30
2018-09-17T16:04:08.134Z,26.60
2018-09-17T16:08:52.197Z,26.00
2018-09-17T16:13:44.309Z,25.30
2018-09-17T16:18:35.789Z,25.00
2018-09-17T16:23:19.530Z,24.60
2018-09-17T16:28:03.620Z,24.20
2018-09-17T16:32:47.524Z,23.80
2018-09-17T16:37:31.419Z,23.60
2018-09-17T16:42:15.184Z,23.10
2018-09-17T16:46:59.062Z,23.10
2018-09-17T16:51:42.770Z,23.00
2018-09-17T16:56:26.870Z,22.90
2018-09-17T17:01:10.650Z,22.80
2018-09-17T17:05:54.537Z,22.60
2018-09-17T17:10:39.432Z,22.40
2018-09-17T17:15:23.313Z,22.20
2018-09-17T17:20:07.326Z,22.00
2018-09-17T17:24:52.805Z,21.80
2018-09-17T17:29:36.625Z,21.70
2018-09-17T17:34:20.877Z,21.50
2018-09-17T17:39:06.878Z,21.40
2018-09-17T17:43:51.353Z,21.30
2018-09-17T17:48:35.576Z,21.20
2018-09-17T17:53:20.475Z,21.10
2018-09-17T17:58:04.604Z,21.00
2018-09-17T18:08:06.896Z,20.70
2018-09-17T18:13:00.497Z,20.50
2018-09-17T18:19:25.404Z,20.50
2018-09-17T18:24:31.008Z,20.40
2018-09-17T18:29:34.194Z,20.30
2018-09-17T18:34:19.377Z,20.30
2018-09-17T18:39:07.095Z,20.00
2018-09-17T18:43:56.244Z,19.80
2018-09-17T18:48:47.941Z,19.60
2018-09-17T18:53:35.673Z,19.50
2018-09-17T19:03:20.390Z,19.40
2018-09-17T19:13:17.061Z,19.20
2018-09-17T19:18:08.920Z,19.20
2018-09-17T19:24:08.052Z,19.30
2018-09-17T19:28:58.784Z,19.30
2018-09-17T19:33:45.983Z,19.30
2018-09-17T19:40:43.995Z,19.10
2018-09-17T19:46:04.253Z,18.90
2018-09-17T19:50:58.277Z,18.60
2018-09-17T19:55:50.212Z,18.50
2018-09-17T20:00:36.601Z,18.20
2018-09-17T20:05:26.541Z,18.00
2018-09-17T20:10:18.579Z,17.70
2018-09-17T20:15:03.466Z,17.70
2018-09-17T20:19:57.563Z,17.60
2018-09-17T20:24:42.850Z,17.50
2018-09-17T20:29:27.069Z,17.50
2018-09-17T20:34:11.264Z,17.40
2018-09-17T20:38:59.742Z,17.20
2018-09-17T20:43:44.890Z,17.10
2018-09-17T20:48:29.080Z,17.00
2018-09-17T20:53:13.636Z,16.80
2018-09-17T20:57:57.875Z,16.70
2018-09-17T21:02:43.092Z,16.70
2018-09-17T21:07:27.207Z,16.70
2018-09-17T21:12:11.684Z,16.70
2018-09-17T21:16:55.833Z,16.50
2018-09-17T21:21:40.011Z,16.40
2018-09-17T21:26:24.276Z,16.30
2018-09-17T21:31:08.581Z,16.10
2018-09-17T21:35:55.956Z,16.10
2018-09-17T21:40:43.840Z,16.10
2018-09-17T21:45:43.788Z,16.20
2018-09-17T21:50:38.872Z,16.20
2018-09-17T21:55:30.412Z,16.30
2018-09-17T22:00:24.922Z,16.20
2018-09-17T22:05:30.872Z,16.10
2018-09-17T22:10:19.550Z,16.00
2018-09-17T22:15:12.296Z,15.90
2018-09-17T22:19:57.105Z,15.80
2018-09-17T22:24:41.335Z,15.90
2018-09-17T22:29:25.543Z,15.80
2018-09-17T22:34:14.948Z,15.50
2018-09-17T22:38:59.246Z,15.40
2018-09-17T22:43:43.720Z,15.20
2018-09-17T22:48:28.346Z,14.90
2018-09-17T22:53:13.671Z,14.70
2018-09-17T22:57:58.239Z,14.80
2018-09-17T23:02:42.193Z,15.10
2018-09-17T23:07:26.164Z,15.40
2018-09-17T23:12:17.315Z,15.70
2018-09-17T23:17:02.588Z,16.00
2018-09-17T23:21:49.438Z,16.20
2018-09-17T23:26:33.576Z,16.10
2018-09-17T23:31:17.844Z,16.10
2018-09-17T23:36:02.572Z,16.20
2018-09-17T23:40:47.679Z,16.30
2018-09-17T23:45:34.503Z,16.30
2018-09-17T23:50:18.839Z,16.40
2018-09-17T23:55:02.816Z,16.50
2018-09-17T23:59:51.281Z,16.40
